createdAt,value
2022-11-15T00:01:21.793Z,25.50
2022-11-15T00:04:14.181Z,25.70
2022-11-15T00:07:04.278Z,25.90
2022-11-15T00:09:54.241Z,25.80
2022-11-15T00:12:44.704Z,25.80
2022-11-15T00:15:34.502Z,25.90
2022-11-15T00:18:24.352Z,25.90
2022-11-15T00:21:16.076Z,26.10
2022-11-15T00:24:06.081Z,26.00
2022-11-15T00:26:55.642Z,26.10
2022-11-15T00:29:45.884Z,26.10
2022-11-15T00:32:35.633Z,26.30
2022-11-15T00:35:25.707Z,26.60
2022-11-15T00:38:15.255Z,26.70
2022-11-15T00:41:09.597Z,26.60
2022-11-15T00:43:59.899Z,26.70
2022-11-15T00:46:49.955Z,26.70
2022-11-15T00:49:39.880Z,26.70
2022-11-15T00:52:29.537Z,26.70
2022-11-15T00:55:20.611Z,26.80
2022-11-15T00:58:10.421Z,27.30
2022-11-15T01:01:08.162Z,27.60
2022-11-15T01:04:01.307Z,27.50
2022-11-15T01:06:52.022Z,27.70
2022-11-15T01:09:42.018Z,27.50
2022-11-15T01:12:32.133Z,27.70
2022-11-15T01:15:22.204Z,27.90
2022-11-15T01:18:12.947Z,28.00
2022-11-15T01:21:03.335Z,28.10
2022-11-15T01:23:57.663Z,28.50
2022-11-15T01:26:48.047Z,28.40
2022-11-15T01:29:38.338Z,28.20
2022-11-15T01:32:28.409Z,28.30
2022-11-15T01:35:18.466Z,28.30
2022-11-15T01:38:08.836Z,28.10
2022-11-15T01:40:59.687Z,28.20
2022-11-15T01:43:52.762Z,28.30
2022-11-15T01:46:45.815Z,28.30
2022-11-15T01:49:38.039Z,28.40
2022-11-15T01:52:31.593Z,28.60
2022-11-15T01:55:28.519Z,29.00
2022-11-15T01:58:18.575Z,29.00
2022-11-15T02:01:08.681Z,29.20
2022-11-15T02:04:09.661Z,29.50
2022-11-15T02:06:59.810Z,29.70
2022-11-15T02:09:50.623Z,29.40
2022-11-15T02:12:40.934Z,29.50
2022-11-15T02:16:03.266Z,29.80
2022-11-15T02:19:02.826Z,29.80
2022-11-15T02:22:27.996Z,29.60
2022-11-15T02:25:42.720Z,29.80
2022-11-15T02:29:01.384Z,30.10
2022-11-15T02:32:30.333Z,30.20
2022-11-15T02:35:59.448Z,30.40
2022-11-15T02:39:22.305Z,30.40
2022-11-15T02:42:42.076Z,30.90
2022-11-15T02:45:36.417Z,30.90
2022-11-15T02:48:28.444Z,30.90
2022-11-15T02:51:20.259Z,30.70
2022-11-15T02:54:13.832Z,31.00
2022-11-15T02:57:09.932Z,31.00
2022-11-15T03:00:21.235Z,31.40
2022-11-15T03:03:40.533Z,31.30
2022-11-15T03:07:03.949Z,31.60
2022-11-15T03:10:20.791Z,31.10
2022-11-15T03:13:30.440Z,31.40
2022-11-15T03:16:59.387Z,31.50
2022-11-15T03:19:53.213Z,32.10
2022-11-15T03:22:47.380Z,32.20
2022-11-15T03:25:41.651Z,32.10
2022-11-15T03:28:40.165Z,32.00
2022-11-15T03:31:55.174Z,32.10
2022-11-15T03:35:09.734Z,32.40
2022-11-15T03:38:23.199Z,32.60
2022-11-15T03:41:24.276Z,32.70
2022-11-15T03:44:39.026Z,32.60
2022-11-15T03:47:51.147Z,32.40
2022-11-15T03:50:42.227Z,32.20
2022-11-15T03:53:33.424Z,32.40
2022-11-15T03:56:23.659Z,32.70
2022-11-15T03:59:13.644Z,33.20
2022-11-15T04:02:03.228Z,33.20
2022-11-15T04:04:53.031Z,33.20
2022-11-15T04:07:42.912Z,32.90
2022-11-15T04:10:33.691Z,33.00
2022-11-15T04:13:23.665Z,33.50
2022-11-15T04:16:13.388Z,33.10
2022-11-15T04:19:22.937Z,33.20
2022-11-15T04:22:32.470Z,33.10
2022-11-15T04:25:24.649Z,33.70
2022-11-15T04:28:16.909Z,33.30
2022-11-15T04:31:06.741Z,33.10
2022-11-15T04:33:57.027Z,33.60
2022-11-15T04:37:06.574Z,33.40
2022-11-15T04:39:56.855Z,33.70
2022-11-15T04:42:47.141Z,33.80
2022-11-15T04:45:37.012Z,33.30
2022-11-15T04:48:26.966Z,34.00
2022-11-15T04:51:17.307Z,33.90
2022-11-15T04:54:08.715Z,34.00
2022-11-15T04:56:58.418Z,34.50
2022-11-15T04:59:48.129Z,34.50
2022-11-15T05:02:58.725Z,34.70
2022-11-15T05:05:49.351Z,34.80
2022-11-15T05:08:38.953Z,34.90
2022-11-15T05:11:29.788Z,34.70
2022-11-15T05:14:19.838Z,34.60
2022-11-15T05:17:09.748Z,33.80
2022-11-15T05:20:00.110Z,33.60
2022-11-15T05:22:50.363Z,33.70
2022-11-15T05:25:40.388Z,33.60
2022-11-15T05:28:30.391Z,34.00
2022-11-15T05:31:20.893Z,34.50
2022-11-15T05:34:11.229Z,35.00
2022-11-15T05:37:02.149Z,35.10
2022-11-15T05:39:52.099Z,35.00
2022-11-15T05:42:42.230Z,35.20
2022-11-15T05:45:32.647Z,35.00
2022-11-15T05:48:22.644Z,34.90
2022-11-15T05:51:12.573Z,34.90
2022-11-15T05:54:04.533Z,35.10
2022-11-15T05:56:55.724Z,34.30
2022-11-15T05:59:46.458Z,33.60
2022-11-15T06:02:36.841Z,33.40
2022-11-15T06:05:27.045Z,33.50
2022-11-15T06:08:17.358Z,33.90
2022-11-15T06:11:08.844Z,34.00
2022-11-15T06:13:59.603Z,33.80
2022-11-15T06:16:49.601Z,34.00
2022-11-15T06:19:39.265Z,34.00
2022-11-15T06:22:29.637Z,34.60
2022-11-15T06:25:19.946Z,35.10
2022-11-15T06:28:09.988Z,35.50
2022-11-15T06:31:08.031Z,35.50
2022-11-15T06:33:58.703Z,35.80
2022-11-15T06:36:48.662Z,35.70
2022-11-15T06:39:38.629Z,35.90
2022-11-15T06:42:28.595Z,35.40
2022-11-15T06:45:18.978Z,35.20
2022-11-15T06:48:09.229Z,35.70
2022-11-15T06:51:01.390Z,36.00
2022-11-15T06:53:51.584Z,35.60
2022-11-15T06:56:41.949Z,35.10
2022-11-15T06:59:35.172Z,35.30
2022-11-15T07:02:28.359Z,35.00
2022-11-15T07:05:19.721Z,34.30
2022-11-15T07:08:10.017Z,34.20
2022-11-15T07:11:05.001Z,34.80
2022-11-15T07:13:55.005Z,34.90
2022-11-15T07:16:45.459Z,34.30
2022-11-15T07:19:35.971Z,34.30
2022-11-15T07:22:25.895Z,35.00
2022-11-15T07:25:16.022Z,35.50
2022-11-15T07:28:06.700Z,35.70
2022-11-15T07:30:57.051Z,36.00
2022-11-15T07:33:46.925Z,35.70
2022-11-15T07:36:36.999Z,36.10
2022-11-15T07:39:27.296Z,35.90
2022-11-15T07:42:36.935Z,36.20
2022-11-15T07:45:31.231Z,36.40
2022-11-15T07:48:21.592Z,36.30
2022-11-15T07:51:17.798Z,36.10
2022-11-15T07:54:07.967Z,36.10
2022-11-15T07:56:59.209Z,36.20
2022-11-15T07:59:51.793Z,36.00
2022-11-15T08:02:42.326Z,35.80
2022-11-15T08:05:32.610Z,35.70
2022-11-15T08:08:23.488Z,35.70
2022-11-15T08:14:19.583Z,36.00
2022-11-15T08:17:09.599Z,35.90
2022-11-15T08:19:59.978Z,36.00
2022-11-15T08:22:53.014Z,35.90
2022-11-15T08:25:43.533Z,36.10
2022-11-15T08:28:34.380Z,35.90
2022-11-15T08:31:24.111Z,36.10
2022-11-15T08:34:14.018Z,36.30
2022-11-15T08:37:04.092Z,36.20
2022-11-15T08:39:53.741Z,36.10
2022-11-15T08:42:44.016Z,35.90
2022-11-15T08:45:36.630Z,35.80
2022-11-15T08:48:27.165Z,35.90
2022-11-15T08:51:16.948Z,35.90
2022-11-15T08:54:06.980Z,35.70
2022-11-15T08:56:56.828Z,35.60
2022-11-15T08:59:47.272Z,35.50
2022-11-15T09:02:37.238Z,35.50
2022-11-15T09:05:27.283Z,35.50
2022-11-15T09:08:47.071Z,35.30
2022-11-15T09:11:29.001Z,35.20
2022-11-15T09:14:19.208Z,35.20
2022-11-15T09:17:12.687Z,35.30
2022-11-15T09:20:03.114Z,35.40
2022-11-15T09:22:53.104Z,35.30
2022-11-15T09:25:43.145Z,35.20
2022-11-15T09:28:35.619Z,35.00
2022-11-15T09:31:25.981Z,35.10
2022-11-15T09:34:16.738Z,35.00
2022-11-15T09:37:07.134Z,34.80
2022-11-15T09:39:57.463Z,34.90
2022-11-15T09:43:07.202Z,34.80
2022-11-15T09:46:31.245Z,34.70
2022-11-15T09:49:22.174Z,34.50
2022-11-15T09:52:06.545Z,34.50
2022-11-15T09:54:56.070Z,34.50
2022-11-15T09:58:06.596Z,34.40
2022-11-15T10:00:48.030Z,34.30
2022-11-15T10:03:26.465Z,34.30
2022-11-15T10:06:02.372Z,34.20
2022-11-15T10:09:07.827Z,34.20
2022-11-15T10:11:40.531Z,34.10
2022-11-15T10:14:30.689Z,34.00
2022-11-15T10:17:39.854Z,33.90
2022-11-15T10:20:26.362Z,33.80
2022-11-15T10:23:01.781Z,33.60
2022-11-15T10:25:34.132Z,33.60
2022-11-15T10:28:29.832Z,33.50
2022-11-15T10:31:01.857Z,33.40
2022-11-15T10:33:38.417Z,33.40
2022-11-15T10:36:28.621Z,33.30
2022-11-15T10:39:00.712Z,33.30
2022-11-15T10:41:38.719Z,33.20
2022-11-15T10:44:29.902Z,33.20
2022-11-15T10:47:23.102Z,32.90
2022-11-15T10:50:06.381Z,32.90
2022-11-15T10:52:39.285Z,32.80
2022-11-15T10:55:28.009Z,32.70
2022-11-15T10:58:08.448Z,32.70
2022-11-15T11:00:42.340Z,32.80
2022-11-15T11:03:37.526Z,32.80
2022-11-15T11:06:12.412Z,32.80
2022-11-15T11:08:43.398Z,32.80
2022-11-15T11:11:13.899Z,32.70
2022-11-15T11:13:44.391Z,32.30
2022-11-15T11:16:29.056Z,31.90
2022-11-15T11:19:38.329Z,31.70
2022-11-15T11:22:47.642Z,32.10
2022-11-15T11:25:48.115Z,32.10
2022-11-15T11:28:44.974Z,32.10
2022-11-15T11:31:46.532Z,32.20
2022-11-15T11:34:41.608Z,32.20
2022-11-15T11:37:46.519Z,32.20
2022-11-15T11:40:35.645Z,32.20
2022-11-15T11:43:45.243Z,32.20
2022-11-15T11:46:48.971Z,32.10
2022-11-15T11:49:28.192Z,31.80
2022-11-15T11:52:25.013Z,31.90
2022-11-15T11:55:21.752Z,31.80
2022-11-15T11:58:31.547Z,31.50
2022-11-15T12:01:15.089Z,31.40
2022-11-15T12:04:22.834Z,31.20
2022-11-15T12:07:23.807Z,31.20
2022-11-15T12:10:18.567Z,31.10
2022-11-15T12:13:21.975Z,31.10
2022-11-15T12:16:00.286Z,31.00
2022-11-15T12:18:32.610Z,30.80
2022-11-15T12:21:28.869Z,30.80
2022-11-15T12:24:23.969Z,30.80
2022-11-15T12:27:26.512Z,30.80
2022-11-15T12:30:01.190Z,30.90
2022-11-15T12:33:10.451Z,30.80
2022-11-15T12:35:43.926Z,31.00
2022-11-15T12:38:35.643Z,30.30
2022-11-15T12:41:27.819Z,29.90
2022-11-15T12:44:01.724Z,29.80
2022-11-15T12:47:10.928Z,30.00
2022-11-15T12:49:47.085Z,30.20
2022-11-15T12:52:18.288Z,30.30
2022-11-15T12:55:00.754Z,30.20
2022-11-15T12:57:34.845Z,30.30
2022-11-15T13:00:29.833Z,30.50
2022-11-15T13:03:21.107Z,30.20
2022-11-15T13:06:00.297Z,30.10
2022-11-15T13:08:46.607Z,30.00
2022-11-15T13:11:55.880Z,30.10
2022-11-15T13:14:53.357Z,30.30
2022-11-15T13:17:30.538Z,29.90
2022-11-15T13:20:26.121Z,29.70
2022-11-15T13:23:12.469Z,29.60
2022-11-15T13:26:23.263Z,29.60
2022-11-15T13:28:57.308Z,29.60
2022-11-15T13:31:32.242Z,29.60
2022-11-15T13:34:17.924Z,29.70
2022-11-15T13:36:58.182Z,29.60
2022-11-15T13:39:39.863Z,29.60
2022-11-15T13:42:22.452Z,29.50
2022-11-15T13:45:02.753Z,29.40
2022-11-15T13:47:34.394Z,29.60
2022-11-15T13:50:09.684Z,29.90
2022-11-15T13:52:46.750Z,29.90
2022-11-15T13:55:21.928Z,29.70
2022-11-15T13:57:58.433Z,29.80
2022-11-15T14:00:48.958Z,30.00
2022-11-15T14:03:27.527Z,30.10
2022-11-15T14:06:18.737Z,29.80
2022-11-15T14:09:28.991Z,29.90
2022-11-15T14:12:00.486Z,29.70
2022-11-15T14:14:32.676Z,29.80
2022-11-15T14:17:04.808Z,29.60
2022-11-15T14:19:40.373Z,29.20
2022-11-15T14:22:31.268Z,28.90
2022-11-15T14:25:26.268Z,29.20
2022-11-15T14:28:17.919Z,29.10
2022-11-15T14:30:52.546Z,29.30
2022-11-15T14:33:36.734Z,29.20
2022-11-15T14:36:21.912Z,29.10
2022-11-15T14:38:52.818Z,29.10
2022-11-15T14:41:29.603Z,29.30
2022-11-15T14:44:00.450Z,29.20
2022-11-15T14:46:31.154Z,29.30
2022-11-15T14:49:01.413Z,29.50
2022-11-15T14:51:31.449Z,29.60
2022-11-15T14:54:01.676Z,29.50
2022-11-15T14:56:32.737Z,29.50
2022-11-15T14:59:03.203Z,29.50
2022-11-15T15:01:34.600Z,29.40
2022-11-15T15:04:05.384Z,29.50
2022-11-15T15:06:36.561Z,29.50
2022-11-15T15:09:07.817Z,29.40
2022-11-15T15:11:38.556Z,29.40
2022-11-15T15:14:09.371Z,29.30
2022-11-15T15:16:40.556Z,29.30
2022-11-15T15:19:11.090Z,29.20
2022-11-15T15:21:42.083Z,29.00
2022-11-15T15:24:17.595Z,29.00
2022-11-15T15:26:48.265Z,29.00
2022-11-15T15:29:18.384Z,28.90
2022-11-15T15:31:48.655Z,28.90
2022-11-15T15:34:19.581Z,28.70
2022-11-15T15:36:50.105Z,28.50
2022-11-15T15:39:20.677Z,28.80
2022-11-15T15:41:56.230Z,28.90
2022-11-15T15:44:28.149Z,28.80
2022-11-15T15:47:00.367Z,28.80
2022-11-15T15:49:30.859Z,28.80
2022-11-15T15:52:01.275Z,28.80
2022-11-15T15:54:31.334Z,28.80
2022-11-15T15:57:01.699Z,28.70
2022-11-15T15:59:31.909Z,28.70
2022-11-15T16:02:02.402Z,28.70
2022-11-15T16:04:33.134Z,28.60
2022-11-15T16:07:06.422Z,28.60
2022-11-15T16:09:56.458Z,28.60
2022-11-15T16:12:27.451Z,28.50
2022-11-15T16:14:58.080Z,28.40
2022-11-15T16:17:34.126Z,28.50
2022-11-15T16:20:05.303Z,28.70
2022-11-15T16:22:35.433Z,28.80
2022-11-15T16:25:06.413Z,28.60
2022-11-15T16:27:39.833Z,28.30
2022-11-15T16:30:18.392Z,28.20
2022-11-15T16:32:49.070Z,28.30
2022-11-15T16:35:20.797Z,28.40
2022-11-15T16:37:52.788Z,28.40
2022-11-15T16:40:32.776Z,28.60
2022-11-15T16:43:04.543Z,28.70
2022-11-15T16:45:37.587Z,28.70
2022-11-15T16:48:07.933Z,28.70
2022-11-15T16:50:44.595Z,28.40
2022-11-15T16:53:14.869Z,28.10
2022-11-15T16:55:45.420Z,27.90
2022-11-15T16:58:15.806Z,27.70
2022-11-15T17:00:46.198Z,27.70
2022-11-15T17:03:16.745Z,27.90
2022-11-15T17:05:47.296Z,28.00
2022-11-15T17:08:18.258Z,28.00
2022-11-15T17:10:49.877Z,28.00
2022-11-15T17:13:20.807Z,27.60
2022-11-15T17:15:50.983Z,27.50
2022-11-15T17:18:22.963Z,27.50
2022-11-15T17:20:53.817Z,27.40
2022-11-15T17:23:24.102Z,27.50
2022-11-15T17:26:23.797Z,27.50
2022-11-15T17:28:58.641Z,27.40
2022-11-15T17:31:29.613Z,27.50
2022-11-15T17:34:00.193Z,27.30
2022-11-15T17:36:30.892Z,27.20
2022-11-15T17:39:02.063Z,27.20
2022-11-15T17:41:33.072Z,27.50
2022-11-15T17:44:04.995Z,27.50
2022-11-15T17:46:35.625Z,27.60
2022-11-15T17:49:06.466Z,27.70
2022-11-15T17:51:36.945Z,27.80
2022-11-15T17:54:07.744Z,27.40
2022-11-15T17:56:42.481Z,27.30
2022-11-15T17:59:17.212Z,27.40
2022-11-15T18:01:50.663Z,27.50
2022-11-15T18:04:21.175Z,27.60
2022-11-15T18:06:51.678Z,27.60
2022-11-15T18:09:23.455Z,27.60
2022-11-15T18:11:56.059Z,27.70
2022-11-15T18:14:29.115Z,27.70
2022-11-15T18:16:59.961Z,27.50
2022-11-15T18:19:30.260Z,27.50
2022-11-15T18:22:02.440Z,27.40
2022-11-15T18:24:35.346Z,27.40
2022-11-15T18:27:07.867Z,27.50
2022-11-15T18:29:39.364Z,27.40
2022-11-15T18:32:13.975Z,27.30
2022-11-15T18:34:44.166Z,27.50
2022-11-15T18:37:14.503Z,27.50
2022-11-15T18:39:45.805Z,27.40
2022-11-15T18:42:18.933Z,27.50
2022-11-15T18:44:49.658Z,27.40
2022-11-15T18:47:19.994Z,27.40
2022-11-15T18:49:50.536Z,27.40
2022-11-15T18:52:20.650Z,27.40
2022-11-15T18:54:50.882Z,27.30
2022-11-15T18:57:20.925Z,27.10
2022-11-15T18:59:51.051Z,27.20
2022-11-15T19:02:21.388Z,27.30
2022-11-15T19:04:53.282Z,27.30
2022-11-15T19:07:24.147Z,27.20
2022-11-15T19:09:54.597Z,27.10
2022-11-15T19:12:25.121Z,27.00
2022-11-15T19:14:55.717Z,27.00
2022-11-15T19:17:26.368Z,27.00
2022-11-15T19:19:56.395Z,27.00
2022-11-15T19:22:26.915Z,26.90
2022-11-15T19:24:57.402Z,26.90
2022-11-15T19:27:27.900Z,26.90
2022-11-15T19:29:58.283Z,26.90
2022-11-15T19:32:30.232Z,26.80
2022-11-15T19:35:00.339Z,26.80
2022-11-15T19:37:30.833Z,26.70
2022-11-15T19:40:01.316Z,26.70
2022-11-15T19:42:31.315Z,26.70
2022-11-15T19:45:01.765Z,26.80
2022-11-15T19:47:32.149Z,26.80
2022-11-15T19:50:02.529Z,26.70
2022-11-15T19:52:33.462Z,26.60
2022-11-15T19:55:03.569Z,26.50
2022-11-15T19:57:33.655Z,26.50
2022-11-15T20:00:07.281Z,26.60
2022-11-15T20:02:38.379Z,26.50
2022-11-15T20:05:11.847Z,26.50
2022-11-15T20:07:44.940Z,26.50
2022-11-15T20:10:19.583Z,26.60
2022-11-15T20:12:50.832Z,26.70
2022-11-15T20:15:21.240Z,26.60
2022-11-15T20:17:52.102Z,26.70
2022-11-15T20:20:22.811Z,26.60
2022-11-15T20:22:54.397Z,26.60
2022-11-15T20:25:24.717Z,26.60
2022-11-15T20:27:55.187Z,26.50
2022-11-15T20:30:26.258Z,26.20
2022-11-15T20:32:56.366Z,26.20
2022-11-15T20:35:26.726Z,26.00
2022-11-15T20:37:56.771Z,26.10
2022-11-15T20:40:27.101Z,26.10
2022-11-15T20:42:57.681Z,26.00
2022-11-15T20:45:27.779Z,26.00
2022-11-15T20:47:59.642Z,25.90
2022-11-15T20:50:43.485Z,25.90
2022-11-15T20:53:16.271Z,25.90
2022-11-15T20:55:50.004Z,25.90
2022-11-15T20:58:21.304Z,25.90
2022-11-15T21:00:52.025Z,25.80
2022-11-15T21:03:22.204Z,25.80
2022-11-15T21:05:55.061Z,25.90
2022-11-15T21:08:25.857Z,26.00
2022-11-15T21:11:16.771Z,26.10
2022-11-15T21:13:47.274Z,26.10
2022-11-15T21:16:18.447Z,26.10
2022-11-15T21:18:48.865Z,26.00
2022-11-15T21:21:20.080Z,26.00
2022-11-15T21:23:50.264Z,25.80
2022-11-15T21:26:21.336Z,25.80
2022-11-15T21:28:52.172Z,26.00
2022-11-15T21:31:22.452Z,26.10
2022-11-15T21:33:52.989Z,26.00
2022-11-15T21:36:23.856Z,25.70
2022-11-15T21:38:55.275Z,25.70
2022-11-15T21:41:26.148Z,25.70
2022-11-15T21:44:01.270Z,25.70
2022-11-15T21:46:33.699Z,25.70
2022-11-15T21:49:04.495Z,25.60
2022-11-15T21:51:35.419Z,25.70
2022-11-15T21:54:06.350Z,25.70
2022-11-15T21:56:37.050Z,25.60
2022-11-15T21:59:07.684Z,25.70
2022-11-15T22:01:58.130Z,25.50
2022-11-15T22:04:29.023Z,25.80
2022-11-15T22:06:59.951Z,25.90
2022-11-15T22:09:30.402Z,25.80
2022-11-15T22:12:00.917Z,25.80
2022-11-15T22:14:31.355Z,25.80
2022-11-15T22:17:01.800Z,25.60
2022-11-15T22:19:32.288Z,25.50
2022-11-15T22:22:02.500Z,25.40
2022-11-15T22:24:33.493Z,25.50
2022-11-15T22:27:03.762Z,25.60
2022-11-15T22:29:34.577Z,25.60
2022-11-15T22:32:05.871Z,25.70
2022-11-15T22:34:36.445Z,25.60
2022-11-15T22:37:19.818Z,25.40
2022-11-15T22:39:51.574Z,25.40
2022-11-15T22:42:23.920Z,25.40
2022-11-15T22:44:54.792Z,25.60
2022-11-15T22:47:25.181Z,25.60
2022-11-15T22:49:55.353Z,25.70
2022-11-15T22:52:25.446Z,25.70
2022-11-15T22:54:55.967Z,25.70
2022-11-15T22:57:26.791Z,25.70
2022-11-15T22:59:57.758Z,25.70
2022-11-15T23:02:31.920Z,25.50
2022-11-15T23:05:02.710Z,25.70
2022-11-15T23:07:35.586Z,25.70
2022-11-15T23:10:26.180Z,25.70
2022-11-15T23:13:15.790Z,25.60
2022-11-15T23:16:07.796Z,25.50
2022-11-15T23:18:42.289Z,25.50
2022-11-15T23:21:42.501Z,25.40
2022-11-15T23:24:15.036Z,25.40
2022-11-15T23:26:48.131Z,25.30
2022-11-15T23:29:21.918Z,25.40
2022-11-15T23:32:12.603Z,25.50
2022-11-15T23:34:47.806Z,25.40
2022-11-15T23:37:18.685Z,25.30
2022-11-15T23:39:49.384Z,25.30
2022-11-15T23:42:21.399Z,25.40
2022-11-15T23:44:52.122Z,25.40
2022-11-15T23:47:22.947Z,25.50
2022-11-15T23:49:54.170Z,25.50
2022-11-15T23:52:26.114Z,25.50
2022-11-15T23:54:56.987Z,25.50
2022-11-15T23:57:27.492Z,25.50
